Terminal Aerodrome Forecast
Issued by NWS

Home | Current Version | Previous Version | Text Only | Print | Product List | Glossary On
Versions: 1 2 3 4 5 6 7 8 9 10 11 12 13 14
000
FTUS44 KEPZ 021734
TAFTCS
TAF
KTCS 021734Z 0218/0318 14008KT P6SM SCT100 SCT250
     FM022100 24009KT P6SM VCTS SCT080CB BKN250
     FM030500 31008KT P6SM SCT080 BKN120=

USA.gov is the U.S. government's official web portal to all federal, state and local government web resources and services.